sensor_id;sensor_type;location;lat;lon;timestamp;temperature;humidity
38131;DHT22;23947;51.894;4.622;2023-02-28T00:00:25;1.50;1.40
38131;DHT22;23947;51.894;4.622;2023-02-28T00:02:51;1.50;1.40
38131;DHT22;23947;51.894;4.622;2023-02-28T00:05:19;1.50;1.40
38131;DHT22;23947;51.894;4.622;2023-02-28T00:07:45;1.50;1.40
38131;DHT22;23947;51.894;4.622;2023-02-28T00:10:14;1.50;1.40
38131;DHT22;23947;51.894;4.622;2023-02-28T00:12:46;1.40;1.40
38131;DHT22;23947;51.894;4.622;2023-02-28T00:15:12;1.40;1.40
38131;DHT22;23947;51.894;4.622;2023-02-28T00:17:38;1.30;1.40
38131;DHT22;23947;51.894;4.622;2023-02-28T00:20:05;1.30;1.40
38131;DHT22;23947;51.894;4.622;2023-02-28T00:22:36;1.20;1.40
38131;DHT22;23947;51.894;4.622;2023-02-28T00:25:03;1.20;1.40
38131;DHT22;23947;51.894;4.622;2023-02-28T00:27:29;1.20;1.40
38131;DHT22;23947;51.894;4.622;2023-02-28T00:29:55;1.20;1.40
38131;DHT22;23947;51.894;4.622;2023-02-28T00:32:20;1.20;1.40
38131;DHT22;23947;51.894;4.622;2023-02-28T00:34:46;1.20;1.40
38131;DHT22;23947;51.894;4.622;2023-02-28T00:37:12;1.30;1.40
38131;DHT22;23947;51.894;4.622;2023-02-28T00:39:38;1.30;1.40
38131;DHT22;23947;51.894;4.622;2023-02-28T00:42:05;1.30;1.40
38131;DHT22;23947;51.894;4.622;2023-02-28T00:44:31;1.30;1.40
38131;DHT22;23947;51.894;4.622;2023-02-28T00:46:58;1.40;1.40
38131;DHT22;23947;51.894;4.622;2023-02-28T00:49:24;1.40;1.40
38131;DHT22;23947;51.894;4.622;2023-02-28T00:51:51;1.50;1.40
38131;DHT22;23947;51.894;4.622;2023-02-28T00:54:16;1.50;1.40
38131;DHT22;23947;51.894;4.622;2023-02-28T00:56:42;1.50;1.40
38131;DHT22;23947;51.894;4.622;2023-02-28T00:59:08;1.60;1.40
38131;DHT22;23947;51.894;4.622;2023-02-28T01:01:34;1.60;1.40
38131;DHT22;23947;51.894;4.622;2023-02-28T01:03:59;1.60;1.40
38131;DHT22;23947;51.894;4.622;2023-02-28T01:06:25;1.70;1.40
38131;DHT22;23947;51.894;4.622;2023-02-28T01:08:51;1.70;1.40
38131;DHT22;23947;51.894;4.622;2023-02-28T01:11:17;1.80;1.40
38131;DHT22;23947;51.894;4.622;2023-02-28T01:13:44;1.80;1.40
38131;DHT22;23947;51.894;4.622;2023-02-28T01:16:11;1.90;1.40
38131;DHT22;23947;51.894;4.622;2023-02-28T01:18:37;1.90;1.40
38131;DHT22;23947;51.894;4.622;2023-02-28T01:21:09;1.90;1.40
38131;DHT22;23947;51.894;4.622;2023-02-28T01:23:34;2.00;1.40
38131;DHT22;23947;51.894;4.622;2023-02-28T01:26:09;1.90;1.40
38131;DHT22;23947;51.894;4.622;2023-02-28T01:28:35;2.00;1.40
38131;DHT22;23947;51.894;4.622;2023-02-28T01:31:01;2.10;1.40
38131;DHT22;23947;51.894;4.622;2023-02-28T01:33:26;2.10;1.40
38131;DHT22;23947;51.894;4.622;2023-02-28T01:36:10;2.10;1.40
38131;DHT22;23947;51.894;4.622;2023-02-28T01:38:36;2.10;1.40
38131;DHT22;23947;51.894;4.622;2023-02-28T01:41:03;2.10;1.40
38131;DHT22;23947;51.894;4.622;2023-02-28T01:43:31;2.20;1.40
38131;DHT22;23947;51.894;4.622;2023-02-28T01:45:58;2.20;1.40
38131;DHT22;23947;51.894;4.622;2023-02-28T01:48:32;2.20;1.40
38131;DHT22;23947;51.894;4.622;2023-02-28T01:51:05;2.30;1.40
38131;DHT22;23947;51.894;4.622;2023-02-28T01:53:49;2.30;1.40
38131;DHT22;23947;51.894;4.622;2023-02-28T01:56:20;2.30;1.40
38131;DHT22;23947;51.894;4.622;2023-02-28T01:58:49;2.30;1.40
38131;DHT22;23947;51.894;4.622;2023-02-28T02:01:16;2.40;1.40
38131;DHT22;23947;51.894;4.622;2023-02-28T02:04:04;2.40;1.40
38131;DHT22;23947;51.894;4.622;2023-02-28T02:06:43;2.40;1.40
38131;DHT22;23947;51.894;4.622;2023-02-28T02:09:09;2.40;1.40
38131;DHT22;23947;51.894;4.622;2023-02-28T02:11:35;2.40;1.40
38131;DHT22;23947;51.894;4.622;2023-02-28T02:19:14;2.50;1.40
38131;DHT22;23947;51.894;4.622;2023-02-28T02:22:15;2.50;1.40
38131;DHT22;23947;51.894;4.622;2023-02-28T02:33:33;2.60;1.40
38131;DHT22;23947;51.894;4.622;2023-02-28T02:39:04;2.60;1.40
38131;DHT22;23947;51.894;4.622;2023-02-28T02:41:39;2.70;1.40
38131;DHT22;23947;51.894;4.622;2023-02-28T02:44:21;2.70;1.40
38131;DHT22;23947;51.894;4.622;2023-02-28T02:46:52;2.70;1.40
38131;DHT22;23947;51.894;4.622;2023-02-28T02:49:27;2.70;1.40
38131;DHT22;23947;51.894;4.622;2023-02-28T02:51:55;2.70;1.40
38131;DHT22;23947;51.894;4.622;2023-02-28T02:54:27;2.60;1.40
38131;DHT22;23947;51.894;4.622;2023-02-28T02:56:59;2.60;1.40
38131;DHT22;23947;51.894;4.622;2023-02-28T02:59:27;2.60;1.40
38131;DHT22;23947;51.894;4.622;2023-02-28T03:01:55;2.60;1.40
38131;DHT22;23947;51.894;4.622;2023-02-28T03:04:24;2.70;1.40
38131;DHT22;23947;51.894;4.622;2023-02-28T03:06:51;2.60;1.40
38131;DHT22;23947;51.894;4.622;2023-02-28T03:09:23;2.70;1.40
38131;DHT22;23947;51.894;4.622;2023-02-28T03:11:50;2.60;1.40
38131;DHT22;23947;51.894;4.622;2023-02-28T03:17:26;2.70;1.40
38131;DHT22;23947;51.894;4.622;2023-02-28T03:22:38;2.70;1.40
38131;DHT22;23947;51.894;4.622;2023-02-28T03:25:19;2.80;1.40
38131;DHT22;23947;51.894;4.622;2023-02-28T03:27:53;2.80;1.40
38131;DHT22;23947;51.894;4.622;2023-02-28T03:30:54;2.80;1.40
38131;DHT22;23947;51.894;4.622;2023-02-28T03:33:34;2.80;1.40
38131;DHT22;23947;51.894;4.622;2023-02-28T03:38:44;2.80;1.40
38131;DHT22;23947;51.894;4.622;2023-02-28T03:41:21;2.70;1.40
38131;DHT22;23947;51.894;4.622;2023-02-28T03:43:56;2.70;1.40
38131;DHT22;23947;51.894;4.622;2023-02-28T03:46:26;2.80;1.40
38131;DHT22;23947;51.894;4.622;2023-02-28T03:51:47;2.80;1.40
38131;DHT22;23947;51.894;4.622;2023-02-28T03:54:19;2.80;1.40
38131;DHT22;23947;51.894;4.622;2023-02-28T03:56:58;2.80;1.40
38131;DHT22;23947;51.894;4.622;2023-02-28T03:59:30;2.80;1.40
38131;DHT22;23947;51.894;4.622;2023-02-28T04:01:58;2.80;1.40
38131;DHT22;23947;51.894;4.622;2023-02-28T04:04:24;2.80;1.40
38131;DHT22;23947;51.894;4.622;2023-02-28T04:06:51;2.80;1.40
38131;DHT22;23947;51.894;4.622;2023-02-28T04:09:16;2.80;1.40
38131;DHT22;23947;51.894;4.622;2023-02-28T04:14:10;2.90;1.40
38131;DHT22;23947;51.894;4.622;2023-02-28T04:16:40;2.90;1.40
38131;DHT22;23947;51.894;4.622;2023-02-28T04:19:08;2.90;1.40
38131;DHT22;23947;51.894;4.622;2023-02-28T04:21:37;2.90;1.40
38131;DHT22;23947;51.894;4.622;2023-02-28T04:24:05;2.90;1.40
38131;DHT22;23947;51.894;4.622;2023-02-28T04:26:35;2.90;1.40
38131;DHT22;23947;51.894;4.622;2023-02-28T04:29:03;2.90;1.40
38131;DHT22;23947;51.894;4.622;2023-02-28T04:31:29;2.90;1.40
38131;DHT22;23947;51.894;4.622;2023-02-28T04:33:55;3.00;1.40
38131;DHT22;23947;51.894;4.622;2023-02-28T04:36:21;2.90;1.40
38131;DHT22;23947;51.894;4.622;2023-02-28T04:38:49;3.00;1.40
38131;DHT22;23947;51.894;4.622;2023-02-28T04:41:15;3.00;1.40
38131;DHT22;23947;51.894;4.622;2023-02-28T04:43:41;3.00;1.40
38131;DHT22;23947;51.894;4.622;2023-02-28T04:46:07;3.00;1.40
38131;DHT22;23947;51.894;4.622;2023-02-28T04:48:36;3.00;1.40
38131;DHT22;23947;51.894;4.622;2023-02-28T04:51:04;3.00;1.40
38131;DHT22;23947;51.894;4.622;2023-02-28T04:53:30;3.00;1.40
38131;DHT22;23947;51.894;4.622;2023-02-28T04:55:57;3.00;1.40
38131;DHT22;23947;51.894;4.622;2023-02-28T04:58:23;3.00;1.40
38131;DHT22;23947;51.894;4.622;2023-02-28T05:00:50;3.00;1.40
38131;DHT22;23947;51.894;4.622;2023-02-28T05:03:15;3.00;1.40
38131;DHT22;23947;51.894;4.622;2023-02-28T05:05:41;3.00;1.40
38131;DHT22;23947;51.894;4.622;2023-02-28T05:08:07;3.00;1.40
38131;DHT22;23947;51.894;4.622;2023-02-28T05:10:32;3.00;1.40
38131;DHT22;23947;51.894;4.622;2023-02-28T05:12:58;3.10;1.40
38131;DHT22;23947;51.894;4.622;2023-02-28T05:15:24;3.10;1.40
38131;DHT22;23947;51.894;4.622;2023-02-28T05:17:50;3.10;1.40
38131;DHT22;23947;51.894;4.622;2023-02-28T05:20:16;3.10;1.40
38131;DHT22;23947;51.894;4.622;2023-02-28T05:22:43;3.10;1.40
38131;DHT22;23947;51.894;4.622;2023-02-28T05:25:15;3.20;1.40
38131;DHT22;23947;51.894;4.622;2023-02-28T05:27:41;3.20;1.40
38131;DHT22;23947;51.894;4.622;2023-02-28T05:30:08;3.10;1.40
38131;DHT22;23947;51.894;4.622;2023-02-28T05:32:36;3.10;1.40
38131;DHT22;23947;51.894;4.622;2023-02-28T05:35:03;3.10;1.40
38131;DHT22;23947;51.894;4.622;2023-02-28T05:37:28;3.10;1.40
38131;DHT22;23947;51.894;4.622;2023-02-28T05:39:54;3.10;1.40
38131;DHT22;23947;51.894;4.622;2023-02-28T05:42:20;3.10;1.40
38131;DHT22;23947;51.894;4.622;2023-02-28T05:44:46;3.10;1.40
38131;DHT22;23947;51.894;4.622;2023-02-28T05:47:12;3.10;1.40
38131;DHT22;23947;51.894;4.622;2023-02-28T05:49:41;3.10;1.40
38131;DHT22;23947;51.894;4.622;2023-02-28T05:52:07;3.10;1.40
38131;DHT22;23947;51.894;4.622;2023-02-28T05:54:32;3.00;1.40
38131;DHT22;23947;51.894;4.622;2023-02-28T05:56:58;3.00;1.40
38131;DHT22;23947;51.894;4.622;2023-02-28T05:59:24;3.00;1.40
38131;DHT22;23947;51.894;4.622;2023-02-28T06:01:49;3.00;1.40
38131;DHT22;23947;51.894;4.622;2023-02-28T06:04:18;2.90;1.40
38131;DHT22;23947;51.894;4.622;2023-02-28T06:06:48;2.90;1.40
38131;DHT22;23947;51.894;4.622;2023-02-28T06:09:14;2.90;1.40
38131;DHT22;23947;51.894;4.622;2023-02-28T06:11:41;2.90;1.40
38131;DHT22;23947;51.894;4.622;2023-02-28T06:14:16;3.00;1.40
38131;DHT22;23947;51.894;4.622;2023-02-28T06:16:42;3.00;1.40
38131;DHT22;23947;51.894;4.622;2023-02-28T06:19:09;2.90;1.40
38131;DHT22;23947;51.894;4.622;2023-02-28T06:21:35;3.00;1.40
38131;DHT22;23947;51.894;4.622;2023-02-28T06:24:01;2.90;1.40
38131;DHT22;23947;51.894;4.622;2023-02-28T06:26:27;2.90;1.40
38131;DHT22;23947;51.894;4.622;2023-02-28T06:28:54;2.90;1.40
38131;DHT22;23947;51.894;4.622;2023-02-28T06:31:20;2.80;1.40
38131;DHT22;23947;51.894;4.622;2023-02-28T06:33:46;2.80;1.40
38131;DHT22;23947;51.894;4.622;2023-02-28T06:36:14;2.80;1.40
38131;DHT22;23947;51.894;4.622;2023-02-28T06:38:40;2.80;1.40
38131;DHT22;23947;51.894;4.622;2023-02-28T06:41:06;2.80;1.40
38131;DHT22;23947;51.894;4.622;2023-02-28T06:43:35;2.70;1.40
38131;DHT22;23947;51.894;4.622;2023-02-28T06:46:03;2.80;1.40
38131;DHT22;23947;51.894;4.622;2023-02-28T06:48:30;2.70;1.40
38131;DHT22;23947;51.894;4.622;2023-02-28T06:51:13;2.70;1.40
38131;DHT22;23947;51.894;4.622;2023-02-28T06:53:40;2.60;1.40
38131;DHT22;23947;51.894;4.622;2023-02-28T06:56:12;2.50;1.40
38131;DHT22;23947;51.894;4.622;2023-02-28T06:58:38;2.50;1.40
38131;DHT22;23947;51.894;4.622;2023-02-28T07:01:05;2.40;1.40
38131;DHT22;23947;51.894;4.622;2023-02-28T07:03:32;2.40;1.40
38131;DHT22;23947;51.894;4.622;2023-02-28T07:05:58;2.30;1.40
38131;DHT22;23947;51.894;4.622;2023-02-28T07:08:25;2.30;1.40
38131;DHT22;23947;51.894;4.622;2023-02-28T07:10:55;2.30;1.40
38131;DHT22;23947;51.894;4.622;2023-02-28T07:13:21;2.20;1.40
38131;DHT22;23947;51.894;4.622;2023-02-28T07:15:59;2.20;1.40
38131;DHT22;23947;51.894;4.622;2023-02-28T07:18:26;2.10;1.40
38131;DHT22;23947;51.894;4.622;2023-02-28T07:20:52;2.10;1.40
38131;DHT22;23947;51.894;4.622;2023-02-28T07:23:18;2.00;1.40
38131;DHT22;23947;51.894;4.622;2023-02-28T07:25:43;2.00;1.40
38131;DHT22;23947;51.894;4.622;2023-02-28T07:28:09;2.00;1.40
38131;DHT22;23947;51.894;4.622;2023-02-28T07:30:35;1.90;1.40
38131;DHT22;23947;51.894;4.622;2023-02-28T07:33:00;1.90;1.40
38131;DHT22;23947;51.894;4.622;2023-02-28T07:35:26;1.90;1.40
38131;DHT22;23947;51.894;4.622;2023-02-28T07:37:52;1.90;1.40
38131;DHT22;23947;51.894;4.622;2023-02-28T07:40:17;2.00;1.40
38131;DHT22;23947;51.894;4.622;2023-02-28T07:42:43;2.00;1.40
38131;DHT22;23947;51.894;4.622;2023-02-28T07:45:10;1.90;1.40
38131;DHT22;23947;51.894;4.622;2023-02-28T07:47:38;1.90;1.40
38131;DHT22;23947;51.894;4.622;2023-02-28T07:50:05;1.80;1.40
38131;DHT22;23947;51.894;4.622;2023-02-28T07:52:31;1.80;1.40
38131;DHT22;23947;51.894;4.622;2023-02-28T07:54:57;1.80;1.40
38131;DHT22;23947;51.894;4.622;2023-02-28T07:57:23;1.90;1.40
38131;DHT22;23947;51.894;4.622;2023-02-28T07:59:49;1.80;1.40
38131;DHT22;23947;51.894;4.622;2023-02-28T08:02:16;1.80;1.40
38131;DHT22;23947;51.894;4.622;2023-02-28T08:04:42;1.70;1.40
38131;DHT22;23947;51.894;4.622;2023-02-28T08:07:08;1.80;1.40
38131;DHT22;23947;51.894;4.622;2023-02-28T08:09:37;1.80;1.40
38131;DHT22;23947;51.894;4.622;2023-02-28T08:12:02;1.80;1.40
38131;DHT22;23947;51.894;4.622;2023-02-28T08:14:28;1.80;1.40
38131;DHT22;23947;51.894;4.622;2023-02-28T08:16:54;1.90;1.40
38131;DHT22;23947;51.894;4.622;2023-02-28T08:19:19;1.80;1.40
38131;DHT22;23947;51.894;4.622;2023-02-28T08:21:45;1.80;1.40
38131;DHT22;23947;51.894;4.622;2023-02-28T08:24:10;1.80;1.40
38131;DHT22;23947;51.894;4.622;2023-02-28T08:26:36;1.80;1.40
38131;DHT22;23947;51.894;4.622;2023-02-28T08:29:02;1.90;1.40
38131;DHT22;23947;51.894;4.622;2023-02-28T08:31:27;1.90;1.40
38131;DHT22;23947;51.894;4.622;2023-02-28T08:33:53;1.90;1.40
38131;DHT22;23947;51.894;4.622;2023-02-28T08:36:22;2.00;1.40
38131;DHT22;23947;51.894;4.622;2023-02-28T08:38:48;2.00;1.40
38131;DHT22;23947;51.894;4.622;2023-02-28T08:41:14;2.10;1.40
38131;DHT22;23947;51.894;4.622;2023-02-28T08:43:40;2.10;1.40
38131;DHT22;23947;51.894;4.622;2023-02-28T08:46:06;2.10;1.40
38131;DHT22;23947;51.894;4.622;2023-02-28T08:48:34;2.10;1.40
38131;DHT22;23947;51.894;4.622;2023-02-28T08:51:26;2.10;1.40
38131;DHT22;23947;51.894;4.622;2023-02-28T08:53:53;2.20;1.40
38131;DHT22;23947;51.894;4.622;2023-02-28T08:56:19;2.20;1.40
38131;DHT22;23947;51.894;4.622;2023-02-28T08:58:47;2.10;1.40
38131;DHT22;23947;51.894;4.622;2023-02-28T09:01:19;2.20;1.40
38131;DHT22;23947;51.894;4.622;2023-02-28T09:03:47;2.20;1.40
38131;DHT22;23947;51.894;4.622;2023-02-28T09:06:26;2.30;1.40
38131;DHT22;23947;51.894;4.622;2023-02-28T09:08:53;2.30;1.40
38131;DHT22;23947;51.894;4.622;2023-02-28T09:11:23;2.30;1.40
38131;DHT22;23947;51.894;4.622;2023-02-28T09:13:49;2.30;1.40
38131;DHT22;23947;51.894;4.622;2023-02-28T09:16:16;2.40;1.40
38131;DHT22;23947;51.894;4.622;2023-02-28T09:18:43;2.40;1.40
38131;DHT22;23947;51.894;4.622;2023-02-28T09:21:11;2.50;1.40
38131;DHT22;23947;51.894;4.622;2023-02-28T09:23:40;2.50;1.40
38131;DHT22;23947;51.894;4.622;2023-02-28T09:26:06;2.50;1.40
38131;DHT22;23947;51.894;4.622;2023-02-28T09:28:32;2.60;1.40
38131;DHT22;23947;51.894;4.622;2023-02-28T09:30:58;2.70;1.40
38131;DHT22;23947;51.894;4.622;2023-02-28T09:33:24;2.70;1.40
38131;DHT22;23947;51.894;4.622;2023-02-28T09:35:51;2.70;1.40
38131;DHT22;23947;51.894;4.622;2023-02-28T09:38:22;2.80;1.40
38131;DHT22;23947;51.894;4.622;2023-02-28T09:40:58;2.80;1.40
38131;DHT22;23947;51.894;4.622;2023-02-28T09:43:33;2.90;1.40
38131;DHT22;23947;51.894;4.622;2023-02-28T09:46:05;3.00;1.40
38131;DHT22;23947;51.894;4.622;2023-02-28T09:48:36;3.00;1.40
38131;DHT22;23947;51.894;4.622;2023-02-28T09:51:08;3.00;1.40
38131;DHT22;23947;51.894;4.622;2023-02-28T09:53:37;3.10;1.40
38131;DHT22;23947;51.894;4.622;2023-02-28T09:56:08;3.10;1.40
38131;DHT22;23947;51.894;4.622;2023-02-28T09:58:45;3.10;1.40
38131;DHT22;23947;51.894;4.622;2023-02-28T10:01:17;3.10;1.40
38131;DHT22;23947;51.894;4.622;2023-02-28T10:03:57;3.10;1.40
38131;DHT22;23947;51.894;4.622;2023-02-28T10:06:30;3.20;1.40
38131;DHT22;23947;51.894;4.622;2023-02-28T10:09:06;3.20;1.40
38131;DHT22;23947;51.894;4.622;2023-02-28T10:11:36;3.20;1.40
38131;DHT22;23947;51.894;4.622;2023-02-28T10:14:11;3.30;1.40
38131;DHT22;23947;51.894;4.622;2023-02-28T10:16:48;3.30;1.40
38131;DHT22;23947;51.894;4.622;2023-02-28T10:22:25;3.40;1.40
38131;DHT22;23947;51.894;4.622;2023-02-28T10:24:55;3.50;1.40
38131;DHT22;23947;51.894;4.622;2023-02-28T10:27:28;3.50;1.40
38131;DHT22;23947;51.894;4.622;2023-02-28T10:29:56;3.60;1.40
38131;DHT22;23947;51.894;4.622;2023-02-28T10:32:27;3.60;1.40
38131;DHT22;23947;51.894;4.622;2023-02-28T10:37:32;3.80;1.40
38131;DHT22;23947;51.894;4.622;2023-02-28T10:40:04;4.00;1.40
38131;DHT22;23947;51.894;4.622;2023-02-28T10:42:31;4.00;1.40
38131;DHT22;23947;51.894;4.622;2023-02-28T10:47:34;4.20;1.40
38131;DHT22;23947;51.894;4.622;2023-02-28T10:50:02;4.20;1.40
38131;DHT22;23947;51.894;4.622;2023-02-28T10:52:37;4.30;1.40
38131;DHT22;23947;51.894;4.622;2023-02-28T10:55:22;4.30;1.40
38131;DHT22;23947;51.894;4.622;2023-02-28T10:57:49;4.30;1.40
38131;DHT22;23947;51.894;4.622;2023-02-28T11:00:19;4.30;1.40
38131;DHT22;23947;51.894;4.622;2023-02-28T11:02:47;4.40;1.40
38131;DHT22;23947;51.894;4.622;2023-02-28T11:08:12;4.40;1.40
38131;DHT22;23947;51.894;4.622;2023-02-28T11:10:39;4.50;1.40
38131;DHT22;23947;51.894;4.622;2023-02-28T11:13:05;4.50;1.40
38131;DHT22;23947;51.894;4.622;2023-02-28T11:15:33;4.60;1.40
38131;DHT22;23947;51.894;4.622;2023-02-28T11:20:38;4.80;1.40
38131;DHT22;23947;51.894;4.622;2023-02-28T11:23:05;4.90;1.40
38131;DHT22;23947;51.894;4.622;2023-02-28T11:25:37;5.00;1.40
38131;DHT22;23947;51.894;4.622;2023-02-28T11:28:06;5.10;1.40
38131;DHT22;23947;51.894;4.622;2023-02-28T11:30:40;5.20;1.40
38131;DHT22;23947;51.894;4.622;2023-02-28T11:33:30;5.30;1.40
38131;DHT22;23947;51.894;4.622;2023-02-28T11:36:09;5.30;1.40
38131;DHT22;23947;51.894;4.622;2023-02-28T11:38:35;5.50;1.40
38131;DHT22;23947;51.894;4.622;2023-02-28T11:44:33;5.60;1.40
38131;DHT22;23947;51.894;4.622;2023-02-28T11:52:30;5.80;1.40
38131;DHT22;23947;51.894;4.622;2023-02-28T11:58:16;5.60;1.40
38131;DHT22;23947;51.894;4.622;2023-02-28T12:01:07;5.60;1.40
38131;DHT22;23947;51.894;4.622;2023-02-28T12:04:36;5.60;1.40
38131;DHT22;23947;51.894;4.622;2023-02-28T12:07:30;5.80;1.40
38131;DHT22;23947;51.894;4.622;2023-02-28T12:09:52;6.00;1.40
38131;DHT22;23947;51.894;4.622;2023-02-28T12:21:03;8.70;1.40
38131;DHT22;23947;51.894;4.622;2023-02-28T12:26:36;9.50;1.40
38131;DHT22;23947;51.894;4.622;2023-02-28T12:29:23;9.80;1.40
38131;DHT22;23947;51.894;4.622;2023-02-28T12:32:12;10.20;1.40
38131;DHT22;23947;51.894;4.622;2023-02-28T12:35:03;10.50;1.40
38131;DHT22;23947;51.894;4.622;2023-02-28T12:40:25;10.80;1.40
38131;DHT22;23947;51.894;4.622;2023-02-28T12:42:56;11.00;1.40
38131;DHT22;23947;51.894;4.622;2023-02-28T12:45:47;11.10;1.40
38131;DHT22;23947;51.894;4.622;2023-02-28T12:48:29;11.30;1.40
38131;DHT22;23947;51.894;4.622;2023-02-28T12:50:57;11.30;1.40
38131;DHT22;23947;51.894;4.622;2023-02-28T12:56:34;11.50;1.40
38131;DHT22;23947;51.894;4.622;2023-02-28T12:59:38;11.60;1.40
38131;DHT22;23947;51.894;4.622;2023-02-28T13:05:14;11.40;1.40
38131;DHT22;23947;51.894;4.622;2023-02-28T13:08:17;11.60;1.40
38131;DHT22;23947;51.894;4.622;2023-02-28T13:10:47;11.70;1.40
38131;DHT22;23947;51.894;4.622;2023-02-28T13:13:22;11.90;1.40
38131;DHT22;23947;51.894;4.622;2023-02-28T13:16:03;11.70;1.40
38131;DHT22;23947;51.894;4.622;2023-02-28T13:18:35;11.70;1.40
38131;DHT22;23947;51.894;4.622;2023-02-28T13:21:03;11.70;1.40
38131;DHT22;23947;51.894;4.622;2023-02-28T13:26:17;11.40;1.40
38131;DHT22;23947;51.894;4.622;2023-02-28T13:29:27;11.40;1.40
38131;DHT22;23947;51.894;4.622;2023-02-28T13:34:31;10.60;1.40
38131;DHT22;23947;51.894;4.622;2023-02-28T13:39:56;10.10;1.40
38131;DHT22;23947;51.894;4.622;2023-02-28T13:47:39;9.60;1.40
38131;DHT22;23947;51.894;4.622;2023-02-28T14:06:31;8.10;1.40
38131;DHT22;23947;51.894;4.622;2023-02-28T14:09:37;7.70;1.40
38131;DHT22;23947;51.894;4.622;2023-02-28T14:18:00;7.40;1.40
38131;DHT22;23947;51.894;4.622;2023-02-28T14:20:30;7.40;1.40
38131;DHT22;23947;51.894;4.622;2023-02-28T14:23:21;7.30;1.40
38131;DHT22;23947;51.894;4.622;2023-02-28T14:31:42;7.20;1.40
38131;DHT22;23947;51.894;4.622;2023-02-28T14:37:19;7.40;1.40
38131;DHT22;23947;51.894;4.622;2023-02-28T14:39:46;7.70;1.40
38131;DHT22;23947;51.894;4.622;2023-02-28T14:42:34;7.80;1.40
38131;DHT22;23947;51.894;4.622;2023-02-28T14:45:00;8.00;1.40
38131;DHT22;23947;51.894;4.622;2023-02-28T14:47:30;8.40;1.40
38131;DHT22;23947;51.894;4.622;2023-02-28T14:49:57;8.60;1.40
38131;DHT22;23947;51.894;4.622;2023-02-28T14:52:28;8.80;1.40
38131;DHT22;23947;51.894;4.622;2023-02-28T14:55:00;8.80;1.40
38131;DHT22;23947;51.894;4.622;2023-02-28T14:57:33;8.80;1.40
38131;DHT22;23947;51.894;4.622;2023-02-28T15:00:46;8.70;1.40
38131;DHT22;23947;51.894;4.622;2023-02-28T15:05:52;8.00;1.40
38131;DHT22;23947;51.894;4.622;2023-02-28T15:08:18;7.80;1.40
38131;DHT22;23947;51.894;4.622;2023-02-28T15:10:54;7.60;1.40
38131;DHT22;23947;51.894;4.622;2023-02-28T15:13:21;7.30;1.40
38131;DHT22;23947;51.894;4.622;2023-02-28T15:18:46;7.00;1.40
38131;DHT22;23947;51.894;4.622;2023-02-28T15:21:19;6.90;1.40
38131;DHT22;23947;51.894;4.622;2023-02-28T15:23:59;6.80;1.40
38131;DHT22;23947;51.894;4.622;2023-02-28T15:26:31;6.70;1.40
38131;DHT22;23947;51.894;4.622;2023-02-28T15:29:21;6.70;1.40
38131;DHT22;23947;51.894;4.622;2023-02-28T15:32:06;6.60;1.40
38131;DHT22;23947;51.894;4.622;2023-02-28T15:34:41;6.50;1.40
38131;DHT22;23947;51.894;4.622;2023-02-28T15:40:38;6.40;1.40
38131;DHT22;23947;51.894;4.622;2023-02-28T15:43:07;6.40;1.40
38131;DHT22;23947;51.894;4.622;2023-02-28T15:45:34;6.30;1.40
38131;DHT22;23947;51.894;4.622;2023-02-28T15:48:04;6.30;1.40
38131;DHT22;23947;51.894;4.622;2023-02-28T15:50:31;6.30;1.40
38131;DHT22;23947;51.894;4.622;2023-02-28T15:52:57;6.20;1.40
38131;DHT22;23947;51.894;4.622;2023-02-28T15:55:27;6.20;1.40
38131;DHT22;23947;51.894;4.622;2023-02-28T15:58:00;6.20;1.40
38131;DHT22;23947;51.894;4.622;2023-02-28T16:00:28;6.10;1.40
38131;DHT22;23947;51.894;4.622;2023-02-28T16:02:54;6.10;1.40
38131;DHT22;23947;51.894;4.622;2023-02-28T16:05:22;6.10;1.40
38131;DHT22;23947;51.894;4.622;2023-02-28T16:07:57;6.10;1.40
38131;DHT22;23947;51.894;4.622;2023-02-28T16:10:25;6.20;1.40
38131;DHT22;23947;51.894;4.622;2023-02-28T16:12:54;6.20;1.40
38131;DHT22;23947;51.894;4.622;2023-02-28T16:15:26;6.20;1.40
38131;DHT22;23947;51.894;4.622;2023-02-28T16:17:53;6.10;1.40
38131;DHT22;23947;51.894;4.622;2023-02-28T16:20:25;6.00;1.40
38131;DHT22;23947;51.894;4.622;2023-02-28T16:22:51;6.00;1.40
38131;DHT22;23947;51.894;4.622;2023-02-28T16:25:20;6.00;1.40
38131;DHT22;23947;51.894;4.622;2023-02-28T16:27:47;5.90;1.40
38131;DHT22;23947;51.894;4.622;2023-02-28T16:30:21;5.80;1.40
38131;DHT22;23947;51.894;4.622;2023-02-28T16:32:48;5.80;1.40
38131;DHT22;23947;51.894;4.622;2023-02-28T16:35:14;5.80;1.40
38131;DHT22;23947;51.894;4.622;2023-02-28T16:37:40;5.80;1.40
38131;DHT22;23947;51.894;4.622;2023-02-28T16:40:13;5.80;1.40
38131;DHT22;23947;51.894;4.622;2023-02-28T16:42:40;5.70;1.40
38131;DHT22;23947;51.894;4.622;2023-02-28T16:45:10;5.70;1.40
38131;DHT22;23947;51.894;4.622;2023-02-28T16:47:36;5.60;1.40
38131;DHT22;23947;51.894;4.622;2023-02-28T16:50:24;5.60;1.40
38131;DHT22;23947;51.894;4.622;2023-02-28T16:52:51;5.50;1.40
38131;DHT22;23947;51.894;4.622;2023-02-28T16:55:21;5.50;1.40
38131;DHT22;23947;51.894;4.622;2023-02-28T16:57:57;5.50;1.40
38131;DHT22;23947;51.894;4.622;2023-02-28T17:00:25;5.40;1.40
38131;DHT22;23947;51.894;4.622;2023-02-28T17:02:52;5.30;1.40
38131;DHT22;23947;51.894;4.622;2023-02-28T17:05:18;5.20;1.40
38131;DHT22;23947;51.894;4.622;2023-02-28T17:07:45;5.00;1.40
38131;DHT22;23947;51.894;4.622;2023-02-28T17:10:15;4.80;1.40
38131;DHT22;23947;51.894;4.622;2023-02-28T17:12:41;4.80;1.40
38131;DHT22;23947;51.894;4.622;2023-02-28T17:15:08;4.80;1.40
38131;DHT22;23947;51.894;4.622;2023-02-28T17:17:34;4.70;1.40
38131;DHT22;23947;51.894;4.622;2023-02-28T17:20:00;4.70;1.40
38131;DHT22;23947;51.894;4.622;2023-02-28T17:22:26;4.60;1.40
38131;DHT22;23947;51.894;4.622;2023-02-28T17:24:52;4.60;1.40
38131;DHT22;23947;51.894;4.622;2023-02-28T17:27:21;4.50;1.40
38131;DHT22;23947;51.894;4.622;2023-02-28T17:29:47;4.50;1.40
38131;DHT22;23947;51.894;4.622;2023-02-28T17:32:12;4.40;1.40
38131;DHT22;23947;51.894;4.622;2023-02-28T17:34:38;4.40;1.40
38131;DHT22;23947;51.894;4.622;2023-02-28T17:37:04;4.30;1.40
38131;DHT22;23947;51.894;4.622;2023-02-28T17:39:29;4.20;1.40
38131;DHT22;23947;51.894;4.622;2023-02-28T17:41:56;4.10;1.40
38131;DHT22;23947;51.894;4.622;2023-02-28T17:44:23;4.00;1.40
38131;DHT22;23947;51.894;4.622;2023-02-28T17:46:50;4.00;1.40
38131;DHT22;23947;51.894;4.622;2023-02-28T17:49:19;3.90;1.40
38131;DHT22;23947;51.894;4.622;2023-02-28T17:51:45;4.00;1.40
38131;DHT22;23947;51.894;4.622;2023-02-28T17:54:11;3.90;1.40
38131;DHT22;23947;51.894;4.622;2023-02-28T17:56:37;3.90;1.40
38131;DHT22;23947;51.894;4.622;2023-02-28T17:59:03;3.80;1.40
38131;DHT22;23947;51.894;4.622;2023-02-28T18:01:28;3.80;1.40
38131;DHT22;23947;51.894;4.622;2023-02-28T18:03:54;3.80;1.40
38131;DHT22;23947;51.894;4.622;2023-02-28T18:06:27;3.80;1.40
38131;DHT22;23947;51.894;4.622;2023-02-28T18:08:54;3.80;1.40
38131;DHT22;23947;51.894;4.622;2023-02-28T18:11:21;3.70;1.40
38131;DHT22;23947;51.894;4.622;2023-02-28T18:13:50;3.70;1.40
38131;DHT22;23947;51.894;4.622;2023-02-28T18:16:17;3.60;1.40
38131;DHT22;23947;51.894;4.622;2023-02-28T18:18:43;3.60;1.40
38131;DHT22;23947;51.894;4.622;2023-02-28T18:21:11;3.50;1.40
38131;DHT22;23947;51.894;4.622;2023-02-28T18:23:37;3.50;1.40
38131;DHT22;23947;51.894;4.622;2023-02-28T18:26:09;3.50;1.40
38131;DHT22;23947;51.894;4.622;2023-02-28T18:28:35;3.40;1.40